Time;durP1;ratioP1;P1;durP2;ratioP2;P2;SDS_P1;SDS_P2;PMS_P1;PMS_P2;Temp;Humidity;BMP_temperature;BMP_pressure;BME280_temperature;BME280_humidity;BME280_pressure;Samples;Min_cycle;Max_cycle;Signal;HPM_P1;HPM_P2
2022/06/16 00:00:35;;;;;;;9.03;3.37;;;12.10;99.90;11.40;100634;;;;568186;246;24067;-74
2022/06/16 00:03:00;;;;;;;7.77;3.30;;;12.10;99.90;11.40;100621;;;;572809;246;24075;-74
2022/06/16 00:05:28;;;;;;;5.13;3.00;;;12.10;99.90;11.40;100623;;;;573684;246;24157;-76
2022/06/16 00:07:56;;;;;;;7.90;3.13;;;12.10;99.90;11.40;100619;;;;573445;246;24074;-77
2022/06/16 00:10:25;;;;;;;8.23;3.70;;;12.10;99.90;11.40;100620;;;;573280;246;24063;-74
2022/06/16 00:12:53;;;;;;;6.50;2.87;;;12.10;99.90;11.40;100617;;;;573746;246;24150;-77
2022/06/16 00:15:21;;;;;;;4.90;2.90;;;12.10;99.90;11.40;100613;;;;582436;246;24048;-76
2022/06/16 00:17:49;;;;;;;5.03;2.60;;;12.10;99.90;11.50;100615;;;;573589;246;24061;-76
2022/06/16 00:20:17;;;;;;;6.93;2.83;;;12.10;99.90;11.50;100620;;;;582363;246;24051;-77
2022/06/16 00:22:48;;;;;;;5.40;2.50;;;12.10;99.90;11.40;100614;;;;573511;246;24082;-74
2022/06/16 00:25:13;;;;;;;6.80;2.70;;;12.20;99.90;11.50;100611;;;;581914;245;24083;-75
2022/06/16 00:27:41;;;;;;;3.87;3.30;;;12.20;99.90;11.50;100613;;;;582564;244;24059;-77
2022/06/16 00:30:09;;;;;;;5.40;2.60;;;12.20;99.90;11.50;100606;;;;574864;246;24112;-77
2022/06/16 00:32:41;;;;;;;5.50;2.70;;;12.20;99.90;11.50;100607;;;;574409;244;24065;-74
2022/06/16 00:35:07;;;;;;;3.47;2.53;;;12.20;99.90;11.50;100612;;;;574102;244;24110;-73
2022/06/16 00:37:35;;;;;;;6.00;2.40;;;12.20;99.90;11.50;100600;;;;571195;246;24109;-73
2022/06/16 00:40:07;;;;;;;2.43;2.20;;;12.20;99.90;11.50;100595;;;;582680;246;24076;-73
2022/06/16 00:42:31;;;;;;;3.37;2.30;;;12.20;99.90;11.50;100596;;;;573969;244;24083;-73
2022/06/16 00:45:00;;;;;;;2.83;2.40;;;12.20;99.90;11.60;100588;;;;582662;246;24077;-73
2022/06/16 00:47:32;;;;;;;5.50;2.60;;;12.30;99.90;11.60;100596;;;;573685;246;24067;-79
2022/06/16 00:49:59;;;;;;;5.07;2.70;;;12.30;99.90;11.60;100588;;;;572894;246;24090;-73
2022/06/16 00:52:27;;;;;;;2.83;2.33;;;12.30;99.90;11.60;100580;;;;573598;246;24046;-73
2022/06/16 00:55:06;;;;;;;2.50;2.00;;;12.30;99.90;11.60;100581;;;;568814;245;24062;-73
2022/06/16 00:57:38;;;;;;;1.73;1.63;;;12.40;99.90;11.60;100594;;;;568957;246;24056;-73
2022/06/16 01:00:11;;;;;;;2.40;2.10;;;12.30;99.90;11.70;100592;;;;573029;244;24079;-73
2022/06/16 01:02:34;;;;;;;2.53;2.10;;;12.40;99.90;11.70;100582;;;;572830;246;24116;-73
2022/06/16 01:05:02;;;;;;;4.80;2.80;;;12.30;99.90;11.70;100582;;;;581813;246;24063;-73
2022/06/16 01:07:30;;;;;;;2.40;2.07;;;12.40;99.90;11.70;100588;;;;581572;246;24120;-73
2022/06/16 01:09:58;;;;;;;3.00;1.93;;;12.40;99.90;11.70;100582;;;;568668;246;24064;-73
2022/06/16 01:15:46;;;;;;;2.27;2.07;;;12.40;99.90;11.70;100572;;;;568980;246;24091;-73
2022/06/16 01:18:29;;;;;;;3.37;2.40;;;12.40;99.90;11.70;100574;;;;567893;246;35103;-73
2022/06/16 01:21:14;;;;;;;2.17;1.97;;;12.40;99.90;11.70;100566;;;;568695;246;24072;-73
2022/06/16 01:24:19;;;;;;;2.30;2.13;;;12.40;99.90;11.70;100572;;;;567437;246;24065;-74
2022/06/16 01:27:23;;;;;;;4.43;1.97;;;12.40;99.90;11.70;100571;;;;573395;246;24065;-74
2022/06/16 01:30:03;;;;;;;4.57;2.53;;;12.40;99.90;11.70;100572;;;;568457;246;35189;-75
2022/06/16 01:32:43;;;;;;;4.47;2.50;;;12.40;99.90;11.70;100577;;;;573247;246;24061;-75
2022/06/16 01:35:33;;;;;;;2.70;2.40;;;12.40;99.90;11.70;100576;;;;572862;246;24155;-72
2022/06/16 01:38:19;;;;;;;4.73;1.87;;;12.30;99.90;11.60;100576;;;;573283;245;24061;-73
2022/06/16 01:41:07;;;;;;;3.13;2.07;;;12.30;99.90;11.60;100570;;;;574307;246;24098;-74
2022/06/16 01:43:38;;;;;;;2.50;2.30;;;12.30;99.90;11.60;100578;;;;562622;246;24056;-74
2022/06/16 01:46:26;;;;;;;3.50;1.93;;;12.30;99.90;11.60;100571;;;;573827;246;24084;-74
2022/06/16 01:48:55;;;;;;;2.33;2.13;;;12.30;99.90;11.60;100575;;;;569701;246;24063;-73
2022/06/16 01:51:35;;;;;;;2.73;1.83;;;12.30;99.90;11.60;100560;;;;573111;245;24119;-73
2022/06/16 01:54:12;;;;;;;3.60;2.07;;;12.30;99.90;11.60;100567;;;;573372;246;24080;-73
2022/06/16 01:56:45;;;;;;;2.23;2.00;;;12.30;99.90;11.60;100570;;;;568881;246;24078;-74
2022/06/16 01:59:13;;;;;;;3.53;2.63;;;12.20;99.90;11.50;100573;;;;571110;246;24078;-72
2022/06/16 02:01:42;;;;;;;3.80;2.33;;;12.20;99.90;11.50;100577;;;;572947;246;24153;-74
2022/06/16 02:04:15;;;;;;;4.27;2.30;;;12.20;99.90;11.50;100572;;;;573114;246;24071;-74
2022/06/16 02:06:44;;;;;;;4.43;2.13;;;12.10;99.90;11.40;100566;;;;572922;246;24086;-73
2022/06/16 02:09:11;;;;;;;6.27;2.33;;;12.10;99.90;11.40;100576;;;;573183;246;24059;-75
2022/06/16 02:11:42;;;;;;;5.00;2.57;;;12.10;99.90;11.40;100562;;;;573018;246;25181;-75
2022/06/16 02:14:11;;;;;;;4.40;3.30;;;12.00;99.90;11.30;100567;;;;569613;246;24127;-77
2022/06/16 02:16:39;;;;;;;5.43;2.73;;;12.00;99.90;11.30;100565;;;;571216;246;24082;-78
2022/06/16 02:19:07;;;;;;;5.43;2.90;;;12.00;99.90;11.30;100563;;;;573259;246;24142;-79
2022/06/16 02:21:37;;;;;;;4.00;2.80;;;12.00;99.90;11.30;100561;;;;573136;246;24197;-77
2022/06/16 02:24:08;;;;;;;5.20;3.13;;;11.90;99.90;11.30;100561;;;;573088;245;24113;-79
2022/06/16 02:26:33;;;;;;;4.83;2.90;;;11.90;99.90;11.30;100559;;;;568934;246;24071;-75
2022/06/16 02:29:01;;;;;;;7.40;2.97;;;12.00;99.90;11.30;100562;;;;573239;246;24070;-77
2022/06/16 02:31:47;;;;;;;5.47;3.10;;;12.00;99.90;11.40;100551;;;;573162;246;24101;-76
2022/06/16 02:34:42;;;;;;;2.73;2.30;;;12.00;99.90;11.40;100553;;;;573284;246;24197;-74
2022/06/16 02:37:19;;;;;;;5.93;2.70;;;12.10;99.90;11.50;100547;;;;581427;246;24085;-78
2022/06/16 02:40:42;;;;;;;5.27;2.90;;;12.10;99.90;11.50;100547;;;;573148;246;24073;-73
2022/06/16 02:43:37;;;;;;;2.77;2.50;;;12.20;99.90;11.60;100547;;;;573267;246;24071;-79
2022/06/16 02:46:47;;;;;;;3.80;2.47;;;12.20;99.90;11.70;100540;;;;568514;246;24063;-73
2022/06/16 02:49:49;;;;;;;2.23;2.03;;;12.30;99.90;11.80;100536;;;;559849;246;24076;-73
2022/06/16 02:52:37;;;;;;;3.77;2.93;;;12.40;99.90;11.90;100536;;;;582430;245;24065;-74
2022/06/16 02:55:17;;;;;;;4.53;2.60;;;12.50;99.90;12.00;100533;;;;573898;246;24108;-79
2022/06/16 02:57:48;;;;;;;4.17;2.70;;;12.60;99.90;12.10;100542;;;;581812;246;24117;-80
2022/06/16 03:00:16;;;;;;;4.03;2.50;;;12.70;99.90;12.20;100535;;;;573389;246;24091;-77
2022/06/16 03:02:43;;;;;;;2.97;2.20;;;12.90;99.90;12.30;100543;;;;573334;246;24153;-78
2022/06/16 03:05:12;;;;;;;2.63;2.10;;;13.00;99.90;12.40;100533;;;;573582;246;24055;-79
2022/06/16 03:07:39;;;;;;;2.30;2.10;;;13.10;99.90;12.50;100536;;;;570688;246;24071;-71
2022/06/16 03:10:07;;;;;;;5.23;2.17;;;13.20;99.90;12.60;100532;;;;573154;246;24146;-73
2022/06/16 03:12:35;;;;;;;6.30;2.30;;;13.30;99.90;12.70;100533;;;;573270;246;24092;-74
2022/06/16 03:15:03;;;;;;;2.40;1.97;;;13.40;99.90;12.80;100531;;;;582354;246;24080;-76
2022/06/16 03:17:31;;;;;;;1.87;1.77;;;13.50;99.90;12.90;100530;;;;569268;246;24044;-73
2022/06/16 03:19:59;;;;;;;4.33;2.07;;;13.50;99.90;13.00;100539;;;;582323;246;24057;-72
2022/06/16 03:22:28;;;;;;;4.77;2.03;;;13.70;99.90;13.10;100535;;;;573626;246;24110;-78
2022/06/16 03:24:56;;;;;;;2.83;2.03;;;13.80;99.90;13.20;100530;;;;582377;246;24048;-76
2022/06/16 03:27:25;;;;;;;3.80;2.30;;;13.90;99.90;13.20;100522;;;;582211;246;25108;-79
2022/06/16 03:29:53;;;;;;;5.13;2.33;;;13.90;99.90;13.30;100528;;;;573310;246;24092;-74
2022/06/16 03:32:21;;;;;;;2.90;1.90;;;14.00;99.90;13.40;100529;;;;582086;246;24092;-76
2022/06/16 03:34:49;;;;;;;4.50;2.13;;;14.10;99.90;13.50;100522;;;;582096;246;24040;-74
2022/06/16 03:37:17;;;;;;;2.50;1.93;;;14.10;99.90;13.60;100519;;;;582108;246;24099;-74
2022/06/16 03:39:44;;;;;;;4.00;2.20;;;14.20;99.90;13.70;100526;;;;582093;246;24086;-74
2022/06/16 03:42:15;;;;;;;4.17;2.00;;;14.40;99.90;13.70;100528;;;;582088;246;24106;-74
2022/06/16 03:44:45;;;;;;;3.50;2.03;;;14.50;99.90;13.80;100525;;;;582034;246;24069;-74
2022/06/16 03:47:10;;;;;;;1.63;1.53;;;14.50;99.90;13.90;100516;;;;581931;246;24048;-74
2022/06/16 03:49:38;;;;;;;3.57;2.07;;;14.60;99.90;14.00;100517;;;;571411;246;24094;-75
2022/06/16 03:52:06;;;;;;;4.30;2.17;;;14.70;99.90;14.10;100520;;;;582221;246;24028;-75
2022/06/16 03:54:34;;;;;;;2.63;2.00;;;14.70;99.90;14.20;100517;;;;573130;246;24067;-73
2022/06/16 03:57:01;;;;;;;3.53;2.40;;;14.80;99.90;14.20;100515;;;;568624;246;24164;-75
2022/06/16 03:59:29;;;;;;;2.93;2.37;;;14.90;99.90;14.30;100505;;;;581875;246;24064;-74
2022/06/16 04:01:57;;;;;;;2.47;2.10;;;14.90;99.90;14.50;100502;;;;581699;246;25132;-74
2022/06/16 04:04:25;;;;;;;5.50;2.10;;;15.10;99.90;14.60;100503;;;;574536;246;24064;-75
2022/06/16 04:06:54;;;;;;;4.10;2.23;;;15.40;99.90;14.70;100512;;;;573952;246;24064;-75
2022/06/16 04:09:22;;;;;;;5.43;2.50;;;15.40;99.90;14.90;100499;;;;582422;246;24087;-74
2022/06/16 04:11:50;;;;;;;3.13;2.70;;;15.50;99.90;15.00;100502;;;;582484;246;24033;-77
2022/06/16 04:14:18;;;;;;;2.23;1.93;;;15.60;99.90;15.10;100508;;;;582222;246;24086;-74
2022/06/16 04:16:51;;;;;;;2.60;2.40;;;15.80;99.90;15.30;100513;;;;582655;246;24049;-75
2022/06/16 04:19:17;;;;;;;3.73;2.03;;;16.00;99.90;15.50;100513;;;;573618;246;24049;-74
2022/06/16 04:21:46;;;;;;;4.10;2.37;;;16.20;99.90;15.60;100514;;;;573612;246;24079;-74
2022/06/16 04:24:14;;;;;;;5.83;2.57;;;16.20;99.90;15.80;100512;;;;568758;246;24079;-74
2022/06/16 04:26:44;;;;;;;3.00;2.67;;;16.40;99.90;16.00;100508;;;;582366;246;24060;-74
2022/06/16 04:29:10;;;;;;;3.27;2.60;;;16.60;99.90;16.10;100515;;;;573278;246;24086;-72
2022/06/16 04:31:38;;;;;;;3.63;2.20;;;16.70;99.90;16.30;100513;;;;570707;246;24114;-75
2022/06/16 04:34:05;;;;;;;2.30;2.07;;;16.90;99.90;16.40;100511;;;;573588;246;24052;-75
2022/06/16 04:36:33;;;;;;;2.00;1.77;;;17.00;99.90;16.50;100520;;;;582370;246;24087;-74
2022/06/16 04:39:01;;;;;;;2.20;2.00;;;17.10;99.90;16.50;100513;;;;582215;246;24060;-75
2022/06/16 04:41:29;;;;;;;3.13;2.07;;;17.10;99.90;16.50;100513;;;;582073;246;24060;-74
2022/06/16 04:43:57;;;;;;;2.20;1.63;;;17.10;99.90;16.50;100515;;;;582095;246;24154;-73
2022/06/16 04:46:25;;;;;;;2.70;1.50;;;17.20;99.90;16.60;100513;;;;573292;246;24063;-73
2022/06/16 04:48:53;;;;;;;5.30;1.83;;;17.20;99.90;16.70;100518;;;;573195;246;24095;-73
2022/06/16 04:51:21;;;;;;;3.17;1.90;;;17.20;99.90;16.70;100513;;;;581794;246;24111;-75
2022/06/16 04:53:49;;;;;;;2.57;1.50;;;17.30;99.90;16.80;100516;;;;581708;246;24077;-74
2022/06/16 04:56:17;;;;;;;1.90;1.80;;;17.30;99.90;16.90;100523;;;;581646;246;24128;-75
2022/06/16 04:58:45;;;;;;;5.67;2.00;;;17.40;99.90;17.00;100516;;;;568526;246;24087;-72
2022/06/16 05:01:13;;;;;;;3.20;2.30;;;17.60;99.90;17.10;100522;;;;581649;246;24115;-74
2022/06/16 05:03:40;;;;;;;3.43;1.93;;;17.70;99.90;17.30;100520;;;;581818;246;24082;-74
2022/06/16 05:06:12;;;;;;;2.90;2.27;;;17.80;99.90;17.50;100518;;;;572960;246;24109;-74
2022/06/16 05:08:37;;;;;;;11.90;2.17;;;18.00;99.90;17.90;100527;;;;581329;245;25137;-74
2022/06/16 05:11:04;;;;;;;3.37;1.87;;;18.40;99.90;18.30;100524;;;;581599;246;24058;-73
2022/06/16 05:13:32;;;;;;;5.10;1.90;;;18.80;99.90;18.60;100516;;;;572912;246;24062;-73
2022/06/16 05:16:00;;;;;;;2.63;2.03;;;19.10;99.90;19.00;100519;;;;583572;245;24068;-73
2022/06/16 05:18:28;;;;;;;3.67;1.90;;;19.50;99.90;19.60;100515;;;;583156;246;24091;-75
2022/06/16 05:21:08;;;;;;;3.87;2.47;;;20.10;99.90;20.00;100515;;;;582935;246;24111;-74
2022/06/16 05:23:36;;;;;;;3.10;2.33;;;20.60;99.90;20.30;100512;;;;582162;246;24204;-75
2022/06/16 05:26:04;;;;;;;2.67;2.10;;;20.90;99.90;20.50;100510;;;;573796;246;24045;-75
2022/06/16 05:28:35;;;;;;;3.33;2.30;;;21.20;99.90;20.60;100512;;;;582584;240;24048;-79
2022/06/16 05:31:03;;;;;;;3.60;1.87;;;21.20;99.90;20.50;100512;;;;571861;246;25135;-74
2022/06/16 05:33:27;;;;;;;2.93;2.10;;;21.10;99.90;20.40;100517;;;;569493;246;24090;-73
2022/06/16 05:35:58;;;;;;;3.57;2.60;;;21.00;99.90;20.40;100512;;;;582386;246;24049;-74
2022/06/16 05:38:26;;;;;;;3.67;1.70;;;21.00;99.90;20.40;100519;;;;573232;246;24058;-74
2022/06/16 05:41:02;;;;;;;3.57;2.30;;;21.00;99.90;20.60;100520;;;;573580;246;24095;-76
2022/06/16 05:43:27;;;;;;;2.75;2.30;;;21.10;99.90;20.90;100521;;;;568372;246;35062;-74
2022/06/16 05:45:55;;;;;;;4.50;1.97;;;21.40;99.90;21.10;100522;;;;573589;246;23068;-74
2022/06/16 05:48:23;;;;;;;3.87;2.50;;;21.60;99.90;21.10;100518;;;;573582;246;24092;-74
2022/06/16 05:50:52;;;;;;;4.57;2.00;;;21.60;99.90;21.10;100515;;;;571314;246;24057;-72
2022/06/16 05:53:20;;;;;;;2.53;1.53;;;21.50;99.90;21.00;100518;;;;572910;246;24060;-73
2022/06/16 05:55:49;;;;;;;2.57;2.03;;;21.50;99.90;21.00;100516;;;;573019;244;24154;-74
2022/06/16 05:58:17;;;;;;;2.90;2.10;;;21.40;99.90;21.00;100520;;;;581651;246;24118;-77
2022/06/16 06:00:49;;;;;;;3.70;2.00;;;21.50;99.90;21.10;100523;;;;568574;246;24166;-75
2022/06/16 06:03:14;;;;;;;2.23;2.03;;;21.50;99.90;21.00;100517;;;;572465;246;24061;-75
2022/06/16 06:05:42;;;;;;;3.23;1.97;;;21.50;99.90;21.10;100524;;;;581642;246;25119;-79
2022/06/16 06:16:35;;;;;;;2.03;1.67;;;22.50;98.00;22.20;100526;;;;569031;246;23175;-82
2022/06/16 06:18:58;;;;;;;3.13;1.70;;;23.50;96.60;23.20;100526;;;;573003;246;23212;-80
2022/06/16 06:24:12;;;;;;;3.83;1.57;;;24.30;94.20;25.30;100524;;;;568982;246;24038;-76
2022/06/16 06:26:40;;;;;;;2.00;1.90;;;25.70;91.50;26.00;100530;;;;574612;246;23056;-77
2022/06/16 06:29:08;;;;;;;1.63;1.53;;;26.30;86.90;27.50;100528;;;;583470;246;23094;-76
2022/06/16 06:31:36;;;;;;;1.30;1.20;;;27.70;79.20;28.20;100531;;;;583208;246;24070;-80
2022/06/16 06:34:04;;;;;;;1.47;1.30;;;28.60;71.60;28.60;100533;;;;582928;246;23147;-80
2022/06/16 06:36:32;;;;;;;3.27;1.50;;;29.10;67.50;28.70;100527;;;;582644;246;23062;-82
2022/06/16 06:39:00;;;;;;;2.37;1.40;;;29.30;63.70;29.30;100527;;;;582631;246;24110;-79
2022/06/16 06:41:28;;;;;;;1.87;1.20;;;30.20;59.80;29.70;100532;;;;582496;246;23121;-81
2022/06/16 06:43:57;;;;;;;1.75;1.23;;;30.10;59.70;30.00;100535;;;;582572;246;23075;-81
2022/06/16 06:46:24;;;;;;;1.25;1.10;;;30.40;58.80;30.40;100535;;;;582302;246;23054;-82
2022/06/16 06:48:53;;;;;;;2.75;1.17;;;31.50;57.10;31.10;100535;;;;582287;246;24083;-81
2022/06/16 06:51:21;;;;;;;1.40;1.30;;;31.50;56.50;31.40;100540;;;;581940;246;23166;-74
2022/06/16 06:53:49;;;;;;;2.30;1.23;;;31.90;55.20;30.60;100542;;;;582101;246;23077;-74
2022/06/16 06:56:17;;;;;;;2.85;1.45;;;31.40;53.90;29.80;100535;;;;576888;246;35084;-74
2022/06/16 06:58:44;;;;;;;1.92;1.20;;;30.70;54.30;28.80;100539;;;;568308;246;24172;-74
2022/06/16 07:01:12;;;;;;;1.62;1.10;;;29.80;54.40;27.90;100535;;;;573266;246;23129;-75
2022/06/16 07:03:40;;;;;;;1.70;1.10;;;28.80;55.60;27.00;100534;;;;568568;246;23117;-74
2022/06/16 07:06:12;;;;;;;3.63;1.30;;;27.80;56.50;26.40;100529;;;;581822;246;23141;-76
2022/06/16 07:08:37;;;;;;;2.80;1.40;;;26.50;59.30;25.80;100533;;;;581325;245;24144;-77
2022/06/16 07:11:06;;;;;;;1.03;0.93;;;26.00;60.80;25.50;100522;;;;581637;246;24189;-74
2022/06/16 07:13:37;;;;;;;0.83;0.80;;;25.70;61.70;25.20;100529;;;;581813;246;23097;-76
2022/06/16 07:16:02;;;;;;;3.83;1.00;;;25.70;61.70;24.90;100534;;;;567954;245;23094;-76
2022/06/16 07:18:30;;;;;;;1.83;1.27;;;25.40;62.10;24.60;100543;;;;573369;246;24095;-73
2022/06/16 07:20:58;;;;;;;2.53;0.93;;;25.10;62.70;24.20;100537;;;;582104;246;24043;-73
2022/06/16 07:23:27;;;;;;;2.93;1.33;;;24.70;63.50;23.70;100543;;;;582132;246;24057;-75
2022/06/16 07:25:54;;;;;;;2.13;1.20;;;24.30;64.30;23.20;100535;;;;582152;246;24081;-75
2022/06/16 07:28:22;;;;;;;1.30;1.20;;;23.80;65.70;22.90;100546;;;;572204;246;24047;-73
2022/06/16 07:30:50;;;;;;;3.50;1.30;;;23.40;67.40;22.70;100550;;;;582200;246;24102;-74
2022/06/16 07:33:18;;;;;;;1.43;1.20;;;23.10;68.60;22.50;100546;;;;582123;246;24106;-74
2022/06/16 07:35:46;;;;;;;1.40;1.30;;;23.00;69.60;22.50;100545;;;;582177;246;24055;-74
2022/06/16 07:38:14;;;;;;;2.10;1.20;;;22.90;70.50;22.30;100552;;;;583066;245;24044;-74
2022/06/16 07:40:41;;;;;;;1.10;0.83;;;22.70;70.30;22.10;100548;;;;570514;246;24092;-74
2022/06/16 07:43:09;;;;;;;1.47;1.07;;;22.60;70.60;22.10;100541;;;;582943;246;24064;-74
2022/06/16 07:45:39;;;;;;;1.07;1.07;;;22.50;71.60;22.10;100546;;;;574113;246;24064;-74
2022/06/16 07:48:09;;;;;;;3.17;1.90;;;22.50;72.40;22.30;100539;;;;582541;246;23061;-75
2022/06/16 07:50:37;;;;;;;1.20;1.10;;;22.70;72.20;22.50;100538;;;;573233;246;24086;-73
2022/06/16 07:53:01;;;;;;;1.77;1.30;;;22.80;71.40;22.70;100541;;;;573300;246;23177;-74
2022/06/16 07:55:30;;;;;;;2.17;1.10;;;23.60;69.70;23.40;100545;;;;582173;246;24108;-75
2022/06/16 07:57:59;;;;;;;3.20;1.30;;;24.30;68.00;23.90;100543;;;;581935;246;23144;-74
2022/06/16 08:00:26;;;;;;;1.93;1.37;;;24.20;67.90;24.50;100542;;;;581872;246;24056;-76
2022/06/16 08:02:55;;;;;;;4.13;1.53;;;24.70;67.00;25.00;100539;;;;570315;246;24100;-74
2022/06/16 08:05:23;;;;;;;2.77;1.33;;;25.50;64.50;25.10;100549;;;;581808;246;24145;-74
2022/06/16 08:07:51;;;;;;;2.27;1.20;;;25.50;64.40;25.80;100558;;;;573205;246;23100;-74
2022/06/16 08:10:19;;;;;;;2.97;1.40;;;26.10;63.90;26.70;100554;;;;581885;246;24143;-75
2022/06/16 08:12:47;;;;;;;1.10;1.03;;;26.90;61.50;28.40;100558;;;;573100;246;23074;-74
2022/06/16 08:15:14;;;;;;;2.73;1.20;;;28.40;60.80;29.80;100563;;;;568959;246;23066;-73
2022/06/16 08:17:42;;;;;;;1.60;1.20;;;29.90;58.20;30.40;100566;;;;581788;246;23173;-73
2022/06/16 08:20:11;;;;;;;2.28;1.27;;;31.20;54.20;30.80;100563;;;;573327;245;23148;-73
2022/06/16 08:22:40;;;;;;;1.27;0.95;;;31.90;52.10;31.50;100569;;;;573322;246;23094;-75
2022/06/16 08:25:08;;;;;;;4.20;1.00;;;31.80;52.00;32.90;100566;;;;573362;246;23085;-77
2022/06/16 08:27:36;;;;;;;1.17;1.00;;;33.10;50.50;34.70;100569;;;;573402;246;23080;-82
2022/06/16 08:30:03;;;;;;;2.00;1.23;;;34.80;47.90;36.10;100572;;;;573298;246;24075;-78
2022/06/16 08:32:31;;;;;;;1.40;1.20;;;36.30;46.30;37.00;100573;;;;573244;246;23068;-80
2022/06/16 08:34:59;;;;;;;2.17;1.02;;;37.30;44.40;37.60;100574;;;;582038;246;23062;-79
2022/06/16 08:37:27;;;;;;;3.17;1.40;;;38.10;41.60;37.10;100583;;;;582115;246;23062;-83
2022/06/16 08:39:55;;;;;;;1.05;0.90;;;37.80;40.70;36.70;100579;;;;582088;246;23061;-74
2022/06/16 08:42:29;;;;;;;1.85;0.80;;;37.60;40.60;36.30;100578;;;;582093;246;24102;-74
2022/06/16 08:45:06;;;;;;;3.30;1.17;;;37.10;40.40;36.20;100574;;;;573318;246;23161;-75
2022/06/16 08:47:40;;;;;;;1.77;1.37;;;36.90;40.80;36.10;100570;;;;573289;246;23159;-75
2022/06/16 08:50:32;;;;;;;2.47;1.20;;;36.80;41.30;36.90;100575;;;;573708;246;24129;-80
2022/06/16 08:53:40;;;;;;;2.03;0.88;;;37.20;40.90;38.30;100587;;;;573615;244;23085;-74
2022/06/16 08:56:20;;;;;;;3.70;1.17;;;38.50;40.60;40.20;100596;;;;573789;246;23068;-77
2022/06/16 08:58:53;;;;;;;1.85;1.20;;;40.20;39.40;40.70;100595;;;;573624;246;23076;-76
2022/06/16 09:01:30;;;;;;;5.37;1.20;;;41.20;37.70;41.40;100600;;;;581459;246;23065;-76
2022/06/16 09:04:06;;;;;;;2.85;1.40;;;41.90;36.20;41.70;100592;;;;582204;246;24090;-75
2022/06/16 09:07:11;;;;;;;1.12;1.10;;;42.40;35.30;42.30;100583;;;;569087;246;23069;-75
2022/06/16 09:13:16;;;;;;;4.30;1.10;;;43.60;33.90;43.60;100594;;;;569190;246;23112;-75
2022/06/16 09:16:12;;;;;;;1.17;1.10;;;44.30;33.80;43.70;100599;;;;573565;246;23082;-79
2022/06/16 09:18:55;;;;;;;1.05;0.93;;;44.70;33.10;42.60;100596;;;;581916;246;23187;-75
2022/06/16 09:21:32;;;;;;;3.17;0.90;;;43.70;33.70;42.60;100606;;;;581530;246;23097;-75
2022/06/16 09:24:21;;;;;;;1.40;1.15;;;43.60;33.60;43.00;100599;;;;572396;246;23074;-76
2022/06/16 09:27:08;;;;;;;1.25;1.15;;;43.80;33.50;43.40;100595;;;;573360;246;23222;-75
2022/06/16 09:29:49;;;;;;;1.48;1.37;;;44.30;33.80;43.70;100604;;;;573292;246;23084;-73
2022/06/16 09:32:41;;;;;;;1.40;1.00;;;44.30;33.10;43.60;100605;;;;569169;246;23095;-74
2022/06/16 09:35:32;;;;;;;0.80;0.80;;;44.40;32.80;43.90;100601;;;;581909;246;24074;-75
2022/06/16 09:38:04;;;;;;;1.95;1.37;;;44.50;32.70;44.00;100601;;;;581843;246;23081;-75
2022/06/16 09:40:47;;;;;;;1.48;1.20;;;44.70;32.70;43.50;100603;;;;572589;246;23096;-77
2022/06/16 09:43:33;;;;;;;2.10;1.30;;;44.50;32.40;42.90;100604;;;;573111;246;23090;-76
2022/06/16 09:46:01;;;;;;;2.92;0.90;;;43.90;32.80;42.10;100601;;;;569305;246;23091;-77
2022/06/16 09:48:53;;;;;;;1.33;1.05;;;43.20;32.90;41.70;100597;;;;573272;246;23137;-76
2022/06/16 09:51:32;;;;;;;5.20;1.30;;;42.60;34.20;42.20;100605;;;;572576;246;23106;-75
2022/06/16 09:54:15;;;;;;;1.95;1.27;;;42.80;33.70;41.90;100604;;;;581421;246;23088;-76
2022/06/16 09:57:02;;;;;;;1.73;1.00;;;42.70;33.40;41.80;100609;;;;581899;246;23113;-74
2022/06/16 09:59:42;;;;;;;5.45;1.30;;;42.20;34.00;41.20;100616;;;;573044;246;24139;-76
2022/06/16 10:02:32;;;;;;;3.15;1.30;;;42.20;33.50;39.80;100611;;;;573236;246;23076;-76
2022/06/16 10:04:53;;;;;;;2.30;1.10;;;41.20;33.70;38.40;100614;;;;561279;252;23093;-75
2022/06/16 10:07:37;;;;;;;4.43;1.20;;;38.70;36.10;37.70;100615;;;;573901;245;23141;-75
2022/06/16 10:10:16;;;;;;;2.92;1.10;;;38.60;36.00;37.40;100618;;;;569047;246;24152;-75
2022/06/16 10:12:50;;;;;;;1.98;1.10;;;38.10;36.90;37.40;100619;;;;581383;246;24122;-77
2022/06/16 10:15:27;;;;;;;2.75;1.00;;;38.00;37.90;37.40;100619;;;;572781;246;23077;-82
2022/06/16 10:17:58;;;;;;;1.55;1.00;;;37.90;37.20;37.30;100607;;;;568477;246;23126;-75
2022/06/16 10:20:22;;;;;;;0.82;0.82;;;37.80;36.90;37.50;100610;;;;568676;246;23062;-77
2022/06/16 10:22:53;;;;;;;3.33;1.17;;;37.90;37.90;37.50;100607;;;;573502;246;23075;-76
2022/06/16 10:25:25;;;;;;;2.87;1.00;;;38.10;37.40;36.90;100603;;;;573412;246;24103;-78
2022/06/16 10:27:52;;;;;;;2.60;1.10;;;37.50;37.60;36.30;100617;;;;560290;253;23177;-76
2022/06/16 10:30:23;;;;;;;2.55;1.05;;;37.10;38.30;35.70;100610;;;;565923;246;23096;-74
2022/06/16 10:33:18;;;;;;;3.33;0.93;;;36.50;38.20;34.80;100601;;;;572751;246;24130;-75
2022/06/16 10:35:52;;;;;;;0.90;0.90;;;35.60;39.30;34.00;100607;;;;582090;245;24128;-75
2022/06/16 10:38:22;;;;;;;2.28;0.93;;;34.80;40.30;33.40;100623;;;;569159;246;24106;-81
2022/06/16 10:40:52;;;;;;;1.37;1.08;;;33.40;41.60;32.80;100611;;;;569999;246;23096;-73
2022/06/16 10:43:19;;;;;;;1.23;0.80;;;33.40;41.60;32.60;100608;;;;581882;246;24103;-75
2022/06/16 10:46:14;;;;;;;1.30;1.17;;;33.10;42.60;32.00;100617;;;;569141;246;23141;-74
2022/06/16 10:48:51;;;;;;;1.17;1.08;;;32.50;43.00;31.40;100613;;;;573002;246;23059;-72
2022/06/16 10:51:19;;;;;;;1.83;1.27;;;32.00;43.70;30.80;100615;;;;572725;246;23070;-76
2022/06/16 10:53:47;;;;;;;2.45;1.40;;;30.70;45.10;30.10;100617;;;;567541;246;35128;-74
2022/06/16 10:56:18;;;;;;;1.17;1.15;;;30.70;45.10;29.60;100616;;;;571227;245;23096;-75
2022/06/16 10:59:01;;;;;;;1.10;1.00;;;30.10;46.30;29.10;100625;;;;581915;246;23093;-76
2022/06/16 11:01:40;;;;;;;3.15;1.20;;;29.60;46.70;28.80;100622;;;;572910;246;23073;-77
2022/06/16 11:04:17;;;;;;;5.70;1.80;;;29.20;47.50;28.40;100627;;;;573049;246;23141;-79
2022/06/16 11:06:52;;;;;;;4.23;1.10;;;28.80;48.00;28.20;100624;;;;582027;246;23087;-74
2022/06/16 11:09:21;;;;;;;1.63;1.20;;;28.60;48.30;28.00;100613;;;;572926;246;23082;-73
2022/06/16 11:11:55;;;;;;;3.13;1.70;;;28.30;49.00;27.80;100625;;;;572821;244;23073;-74
2022/06/16 11:14:40;;;;;;;4.15;1.55;;;28.10;50.40;27.60;100628;;;;569659;246;23068;-73
2022/06/16 11:17:17;;;;;;;3.10;1.17;;;28.00;51.20;27.50;100631;;;;574062;246;23083;-74
2022/06/16 11:19:48;;;;;;;1.03;1.03;;;27.80;51.20;27.50;100625;;;;573314;246;24134;-74
2022/06/16 11:22:31;;;;;;;2.00;1.10;;;27.80;51.00;27.40;100623;;;;569737;246;23097;-73
2022/06/16 11:25:06;;;;;;;1.93;1.00;;;27.70;52.00;27.40;100616;;;;573469;246;23091;-73
2022/06/16 11:27:43;;;;;;;5.10;1.93;;;27.70;52.00;27.50;100617;;;;573766;246;23079;-73
2022/06/16 11:30:42;;;;;;;1.63;1.00;;;27.80;52.10;27.30;100624;;;;573241;246;23077;-73
2022/06/16 11:36:58;;;;;;;2.67;2.20;;;27.60;52.10;26.90;100622;;;;569014;246;23103;-73
2022/06/16 11:39:54;;;;;;;1.83;1.30;;;27.30;53.20;26.60;100626;;;;573251;246;23079;-74
2022/06/16 11:42:21;;;;;;;3.10;1.30;;;27.20;53.00;26.70;100624;;;;572986;246;23104;-74
2022/06/16 11:45:45;;;;;;;3.43;2.97;;;27.10;53.80;26.70;100621;;;;573198;246;23076;-74
2022/06/16 11:48:18;;;;;;;2.40;1.60;;;27.10;54.30;26.60;100619;;;;573205;246;23069;-73
2022/06/16 11:51:08;;;;;;;3.00;1.30;;;27.00;53.80;26.40;100617;;;;572621;246;23105;-73
2022/06/16 11:54:25;;;;;;;4.43;2.17;;;26.80;54.20;26.30;100605;;;;572738;246;24060;-73
2022/06/16 11:57:05;;;;;;;1.80;1.63;;;26.50;54.90;26.10;100618;;;;572706;246;23134;-74